sensor_id;sensor_type;location;lat;lon;timestamp;pressure;altitude;pressure_sealevel;temperature;humidity
70954;BME280;58618;47.490;8.736;2023-02-16T00:01:01;97686.97;;;-1.77;100.00
70954;BME280;58618;47.490;8.736;2023-02-16T00:03:29;97680.84;;;-1.90;100.00
70954;BME280;58618;47.490;8.736;2023-02-16T00:05:56;97671.47;;;-2.13;100.00
70954;BME280;58618;47.490;8.736;2023-02-16T00:08:25;97656.00;;;-2.18;100.00
70954;BME280;58618;47.490;8.736;2023-02-16T00:10:53;97680.31;;;-2.17;100.00
70954;BME280;58618;47.490;8.736;2023-02-16T00:13:38;97690.06;;;-1.97;100.00
70954;BME280;58618;47.490;8.736;2023-02-16T00:16:14;97681.25;;;-2.09;100.00
70954;BME280;58618;47.490;8.736;2023-02-16T00:18:42;97650.06;;;-2.41;100.00
70954;BME280;58618;47.490;8.736;2023-02-16T00:21:09;97700.22;;;-2.14;100.00
70954;BME280;58618;47.490;8.736;2023-02-16T00:23:38;97675.63;;;-2.28;100.00
70954;BME280;58618;47.490;8.736;2023-02-16T00:26:12;97710.44;;;-1.99;100.00
70954;BME280;58618;47.490;8.736;2023-02-16T00:28:41;97653.81;;;-2.21;100.00
70954;BME280;58618;47.490;8.736;2023-02-16T00:31:15;97706.47;;;-1.93;100.00
70954;BME280;58618;47.490;8.736;2023-02-16T00:33:43;97702.66;;;-1.89;100.00
70954;BME280;58618;47.490;8.736;2023-02-16T00:36:10;97699.22;;;-2.04;100.00
70954;BME280;58618;47.490;8.736;2023-02-16T00:38:39;97671.28;;;-2.11;100.00
70954;BME280;58618;47.490;8.736;2023-02-16T00:41:14;97681.25;;;-2.09;100.00
70954;BME280;58618;47.490;8.736;2023-02-16T00:44:04;97684.69;;;-2.02;100.00
70954;BME280;58618;47.490;8.736;2023-02-16T00:46:32;97693.47;;;-1.90;100.00
70954;BME280;58618;47.490;8.736;2023-02-16T00:48:59;97690.66;;;-1.87;100.00
70954;BME280;58618;47.490;8.736;2023-02-16T00:51:26;97723.97;;;-1.53;100.00
70954;BME280;58618;47.490;8.736;2023-02-16T00:53:55;97718.22;;;-1.39;100.00
70954;BME280;58618;47.490;8.736;2023-02-16T00:56:22;97727.00;;;-1.27;100.00
70954;BME280;58618;47.490;8.736;2023-02-16T00:58:51;97734.06;;;-1.14;100.00
70954;BME280;58618;47.490;8.736;2023-02-16T01:01:20;97696.47;;;-1.25;100.00
70954;BME280;58618;47.490;8.736;2023-02-16T01:03:49;97700.34;;;-1.14;100.00
70954;BME280;58618;47.490;8.736;2023-02-16T01:06:16;97676.34;;;-1.18;100.00
70954;BME280;58618;47.490;8.736;2023-02-16T01:09:11;97724.03;;;-0.85;100.00
70954;BME280;58618;47.490;8.736;2023-02-16T01:11:56;97717.28;;;-0.92;100.00
70954;BME280;58618;47.490;8.736;2023-02-16T01:14:24;97705.66;;;-1.01;100.00
70954;BME280;58618;47.490;8.736;2023-02-16T01:16:52;97722.00;;;-0.89;100.00
70954;BME280;58618;47.490;8.736;2023-02-16T01:19:19;97726.41;;;-0.83;100.00
70954;BME280;58618;47.490;8.736;2023-02-16T01:21:47;97707.00;;;-0.91;100.00
70954;BME280;58618;47.490;8.736;2023-02-16T01:24:16;97719.44;;;-0.81;100.00
70954;BME280;58618;47.490;8.736;2023-02-16T01:26:46;97706.50;;;-0.86;100.00
70954;BME280;58618;47.490;8.736;2023-02-16T01:29:15;97702.22;;;-0.86;100.00
70954;BME280;58618;47.490;8.736;2023-02-16T01:31:43;97726.34;;;-0.75;100.00
70954;BME280;58618;47.490;8.736;2023-02-16T01:34:11;97681.22;;;-0.94;100.00
70954;BME280;58618;47.490;8.736;2023-02-16T01:36:41;97710.59;;;-0.85;100.00
70954;BME280;58618;47.490;8.736;2023-02-16T01:39:10;97708.47;;;-0.96;100.00
70954;BME280;58618;47.490;8.736;2023-02-16T01:41:53;97701.75;;;-0.89;100.00
70954;BME280;58618;47.490;8.736;2023-02-16T01:44:23;97682.88;;;-1.01;100.00
70954;BME280;58618;47.490;8.736;2023-02-16T01:46:53;97677.25;;;-1.11;100.00
70954;BME280;58618;47.490;8.736;2023-02-16T01:49:22;97692.09;;;-1.08;100.00
70954;BME280;58618;47.490;8.736;2023-02-16T01:51:55;97670.06;;;-1.22;100.00
70954;BME280;58618;47.490;8.736;2023-02-16T01:54:33;97674.75;;;-1.19;100.00
70954;BME280;58618;47.490;8.736;2023-02-16T01:57:12;97667.25;;;-1.27;100.00
70954;BME280;58618;47.490;8.736;2023-02-16T02:00:22;97679.81;;;-1.19;100.00
70954;BME280;58618;47.490;8.736;2023-02-16T02:02:53;97644.56;;;-1.44;100.00
70954;BME280;58618;47.490;8.736;2023-02-16T02:05:41;97693.44;;;-1.20;100.00
70954;BME280;58618;47.490;8.736;2023-02-16T02:08:16;97668.75;;;-1.41;100.00
70954;BME280;58618;47.490;8.736;2023-02-16T02:10:54;97677.56;;;-1.37;100.00
70954;BME280;58618;47.490;8.736;2023-02-16T02:13:30;97670.38;;;-1.48;100.00
70954;BME280;58618;47.490;8.736;2023-02-16T02:15:59;97682.25;;;-1.49;100.00
70954;BME280;58618;47.490;8.736;2023-02-16T02:18:27;97671.16;;;-1.48;100.00
70954;BME280;58618;47.490;8.736;2023-02-16T02:21:05;97695.47;;;-1.39;100.00
70954;BME280;58618;47.490;8.736;2023-02-16T02:24:07;97695.00;;;-1.42;100.00
70954;BME280;58618;47.490;8.736;2023-02-16T02:27:06;97693.31;;;-1.50;100.00
70954;BME280;58618;47.490;8.736;2023-02-16T02:30:03;97691.38;;;-1.48;100.00
70954;BME280;58618;47.490;8.736;2023-02-16T02:32:46;97670.91;;;-1.61;100.00
70954;BME280;58618;47.490;8.736;2023-02-16T02:35:25;97667.84;;;-1.79;100.00
70954;BME280;58618;47.490;8.736;2023-02-16T02:37:57;97676.72;;;-1.83;100.00
70954;BME280;58618;47.490;8.736;2023-02-16T02:40:35;97651.78;;;-1.86;100.00
70954;BME280;58618;47.490;8.736;2023-02-16T02:43:13;97638.84;;;-1.91;100.00
70954;BME280;58618;47.490;8.736;2023-02-16T02:45:46;97693.69;;;-1.69;100.00
70954;BME280;58618;47.490;8.736;2023-02-16T02:48:14;97651.63;;;-1.93;100.00
70954;BME280;58618;47.490;8.736;2023-02-16T02:50:49;97684.72;;;-1.72;100.00
70954;BME280;58618;47.490;8.736;2023-02-16T02:53:37;97672.91;;;-1.79;100.00
70954;BME280;58618;47.490;8.736;2023-02-16T02:56:07;97683.50;;;-1.76;100.00
70954;BME280;58618;47.490;8.736;2023-02-16T02:59:07;97675.94;;;-1.84;100.00
70954;BME280;58618;47.490;8.736;2023-02-16T03:01:55;97686.81;;;-1.75;100.00
70954;BME280;58618;47.490;8.736;2023-02-16T03:04:27;97673.47;;;-1.69;100.00
70954;BME280;58618;47.490;8.736;2023-02-16T03:06:57;97679.13;;;-1.59;100.00
70954;BME280;58618;47.490;8.736;2023-02-16T03:09:27;97644.59;;;-1.75;100.00
70954;BME280;58618;47.490;8.736;2023-02-16T03:11:55;97669.97;;;-1.60;100.00
70954;BME280;58618;47.490;8.736;2023-02-16T03:14:46;97682.53;;;-1.44;100.00
70954;BME280;58618;47.490;8.736;2023-02-16T03:17:18;97668.00;;;-1.50;100.00
70954;BME280;58618;47.490;8.736;2023-02-16T03:20:08;97690.06;;;-1.36;100.00
70954;BME280;58618;47.490;8.736;2023-02-16T03:22:56;97640.56;;;-1.61;100.00
70954;BME280;58618;47.490;8.736;2023-02-16T03:25:42;97688.81;;;-1.40;100.00
70954;BME280;58618;47.490;8.736;2023-02-16T03:28:29;97700.84;;;-1.42;100.00
70954;BME280;58618;47.490;8.736;2023-02-16T03:31:19;97686.31;;;-1.48;100.00
70954;BME280;58618;47.490;8.736;2023-02-16T03:33:48;97690.16;;;-1.52;100.00
70954;BME280;58618;47.490;8.736;2023-02-16T03:36:20;97696.00;;;-1.51;100.00
70954;BME280;58618;47.490;8.736;2023-02-16T03:38:47;97653.66;;;-1.80;100.00
70954;BME280;58618;47.490;8.736;2023-02-16T03:41:14;97670.22;;;-1.78;100.00
70954;BME280;58618;47.490;8.736;2023-02-16T03:43:42;97672.00;;;-1.86;100.00
70954;BME280;58618;47.490;8.736;2023-02-16T03:46:10;97667.31;;;-2.05;100.00
70954;BME280;58618;47.490;8.736;2023-02-16T03:48:38;97691.56;;;-1.80;100.00
70954;BME280;58618;47.490;8.736;2023-02-16T03:51:06;97629.38;;;-1.97;100.00
70954;BME280;58618;47.490;8.736;2023-02-16T03:53:33;97666.56;;;-1.75;100.00
70954;BME280;58618;47.490;8.736;2023-02-16T03:56:00;97642.91;;;-1.82;100.00
70954;BME280;58618;47.490;8.736;2023-02-16T03:58:28;97660.88;;;-1.77;100.00
70954;BME280;58618;47.490;8.736;2023-02-16T04:00:55;97673.47;;;-1.69;100.00
70954;BME280;58618;47.490;8.736;2023-02-16T04:03:26;97675.19;;;-2.00;100.00
70954;BME280;58618;47.490;8.736;2023-02-16T04:05:55;97642.38;;;-2.08;100.00
70954;BME280;58618;47.490;8.736;2023-02-16T04:08:22;97653.53;;;-1.95;100.00
70954;BME280;58618;47.490;8.736;2023-02-16T04:10:50;97673.25;;;-1.82;100.00
70954;BME280;58618;47.490;8.736;2023-02-16T04:13:19;97660.63;;;-1.90;100.00
70954;BME280;58618;47.490;8.736;2023-02-16T04:15:45;97699.25;;;-1.65;100.00
70954;BME280;58618;47.490;8.736;2023-02-16T04:18:12;97666.44;;;-1.82;100.00
70954;BME280;58618;47.490;8.736;2023-02-16T04:20:40;97655.69;;;-1.84;100.00
70954;BME280;58618;47.490;8.736;2023-02-16T04:23:10;97651.13;;;-1.88;100.00
70954;BME280;58618;47.490;8.736;2023-02-16T04:25:37;97689.91;;;-1.65;100.00
70954;BME280;58618;47.490;8.736;2023-02-16T04:28:05;97684.84;;;-1.65;100.00
70954;BME280;58618;47.490;8.736;2023-02-16T04:30:33;97707.69;;;-1.50;100.00
70954;BME280;58618;47.490;8.736;2023-02-16T04:33:00;97710.84;;;-1.48;100.00
70954;BME280;58618;47.490;8.736;2023-02-16T04:35:27;97709.16;;;-1.56;100.00
70954;BME280;58618;47.490;8.736;2023-02-16T04:37:54;97676.97;;;-1.70;100.00
70954;BME280;58618;47.490;8.736;2023-02-16T04:40:23;97713.28;;;-1.63;100.00
70954;BME280;58618;47.490;8.736;2023-02-16T04:42:52;97711.03;;;-1.58;100.00
70954;BME280;58618;47.490;8.736;2023-02-16T04:45:19;97692.16;;;-1.70;100.00
70954;BME280;58618;47.490;8.736;2023-02-16T04:47:47;97681.31;;;-1.87;100.00
70954;BME280;58618;47.490;8.736;2023-02-16T04:50:14;97672.38;;;-2.05;100.00
70954;BME280;58618;47.490;8.736;2023-02-16T04:52:41;97715.53;;;-1.68;100.00
70954;BME280;58618;47.490;8.736;2023-02-16T04:55:08;97658.91;;;-2.37;100.00
70954;BME280;58618;47.490;8.736;2023-02-16T04:57:38;97686.53;;;-2.35;100.00
70954;BME280;58618;47.490;8.736;2023-02-16T05:00:07;97692.06;;;-2.48;100.00
70954;BME280;58618;47.490;8.736;2023-02-16T05:02:42;97706.56;;;-2.26;100.00
70954;BME280;58618;47.490;8.736;2023-02-16T05:05:10;97672.50;;;-2.46;100.00
70954;BME280;58618;47.490;8.736;2023-02-16T05:07:38;97703.53;;;-2.21;100.00
70954;BME280;58618;47.490;8.736;2023-02-16T05:10:05;97705.22;;;-1.97;100.00
70954;BME280;58618;47.490;8.736;2023-02-16T05:12:33;97693.28;;;-2.11;100.00
70954;BME280;58618;47.490;8.736;2023-02-16T05:15:19;97712.50;;;-2.02;100.00
70954;BME280;58618;47.490;8.736;2023-02-16T05:17:47;97716.28;;;-1.98;100.00
70954;BME280;58618;47.490;8.736;2023-02-16T05:20:14;97677.78;;;-2.17;100.00
70954;BME280;58618;47.490;8.736;2023-02-16T05:22:42;97684.06;;;-2.04;100.00
70954;BME280;58618;47.490;8.736;2023-02-16T05:25:14;97679.66;;;-2.10;100.00
70954;BME280;58618;47.490;8.736;2023-02-16T05:27:54;97675.59;;;-2.20;100.00
70954;BME280;58618;47.490;8.736;2023-02-16T05:30:45;97692.28;;;-2.10;100.00
70954;BME280;58618;47.490;8.736;2023-02-16T05:33:21;97716.91;;;-1.96;100.00
70954;BME280;58618;47.490;8.736;2023-02-16T05:36:23;97695.81;;;-2.11;100.00
70954;BME280;58618;47.490;8.736;2023-02-16T05:38:51;97725.75;;;-1.92;100.00
70954;BME280;58618;47.490;8.736;2023-02-16T05:41:20;97695.47;;;-2.17;100.00
70954;BME280;58618;47.490;8.736;2023-02-16T05:43:51;97730.16;;;-1.94;100.00
70954;BME280;58618;47.490;8.736;2023-02-16T05:46:20;97681.88;;;-2.16;100.00
70954;BME280;58618;47.490;8.736;2023-02-16T05:48:48;97728.56;;;-1.95;100.00
70954;BME280;58618;47.490;8.736;2023-02-16T05:51:16;97687.28;;;-2.27;100.00
70954;BME280;58618;47.490;8.736;2023-02-16T05:53:43;97693.63;;;-2.23;100.00
70954;BME280;58618;47.490;8.736;2023-02-16T05:56:11;97703.09;;;-2.25;100.00
70954;BME280;58618;47.490;8.736;2023-02-16T05:58:39;97700.56;;;-2.25;100.00
70954;BME280;58618;47.490;8.736;2023-02-16T06:01:06;97735.25;;;-2.10;100.00
70954;BME280;58618;47.490;8.736;2023-02-16T06:03:35;97670.63;;;-2.52;100.00
70954;BME280;58618;47.490;8.736;2023-02-16T06:06:04;97727.25;;;-2.22;100.00
70954;BME280;58618;47.490;8.736;2023-02-16T06:08:32;97737.03;;;-2.19;100.00
70954;BME280;58618;47.490;8.736;2023-02-16T06:10:59;97741.13;;;-2.26;100.00
70954;BME280;58618;47.490;8.736;2023-02-16T06:13:26;97744.59;;;-2.27;100.00
70954;BME280;58618;47.490;8.736;2023-02-16T06:16:00;97739.75;;;-2.29;100.00
70954;BME280;58618;47.490;8.736;2023-02-16T06:18:28;97750.78;;;-2.30;100.00
70954;BME280;58618;47.490;8.736;2023-02-16T06:20:56;97750.44;;;-2.27;100.00
70954;BME280;58618;47.490;8.736;2023-02-16T06:23:23;97718.13;;;-2.47;100.00
70954;BME280;58618;47.490;8.736;2023-02-16T06:25:51;97735.97;;;-2.33;100.00
70954;BME280;58618;47.490;8.736;2023-02-16T06:28:19;97742.09;;;-2.35;100.00
70954;BME280;58618;47.490;8.736;2023-02-16T06:30:47;97762.75;;;-2.16;100.00
70954;BME280;58618;47.490;8.736;2023-02-16T06:33:14;97767.50;;;-2.13;100.00
70954;BME280;58618;47.490;8.736;2023-02-16T06:35:41;97766.88;;;-2.06;100.00
70954;BME280;58618;47.490;8.736;2023-02-16T06:38:10;97741.44;;;-2.13;100.00
70954;BME280;58618;47.490;8.736;2023-02-16T06:40:38;97739.41;;;-2.18;100.00
70954;BME280;58618;47.490;8.736;2023-02-16T06:43:05;97732.47;;;-2.24;100.00
70954;BME280;58618;47.490;8.736;2023-02-16T06:45:33;97775.69;;;-2.10;100.00
70954;BME280;58618;47.490;8.736;2023-02-16T06:48:01;97774.06;;;-1.95;100.00
70954;BME280;58618;47.490;8.736;2023-02-16T06:50:28;97765.50;;;-1.78;100.00
70954;BME280;58618;47.490;8.736;2023-02-16T06:52:55;97774.97;;;-1.72;100.00
70954;BME280;58618;47.490;8.736;2023-02-16T06:55:29;97744.66;;;-1.80;100.00
70954;BME280;58618;47.490;8.736;2023-02-16T06:58:01;97756.63;;;-1.66;100.00
70954;BME280;58618;47.490;8.736;2023-02-16T07:00:29;97773.66;;;-1.60;100.00
70954;BME280;58618;47.490;8.736;2023-02-16T07:02:56;97772.16;;;-1.77;100.00
70954;BME280;58618;47.490;8.736;2023-02-16T07:05:24;97775.25;;;-1.59;100.00
70954;BME280;58618;47.490;8.736;2023-02-16T07:07:51;97770.09;;;-1.43;100.00
70954;BME280;58618;47.490;8.736;2023-02-16T07:10:19;97778.00;;;-1.38;100.00
70954;BME280;58618;47.490;8.736;2023-02-16T07:12:48;97752.06;;;-1.40;100.00
70954;BME280;58618;47.490;8.736;2023-02-16T07:15:15;97755.66;;;-1.03;100.00
70954;BME280;58618;47.490;8.736;2023-02-16T07:17:42;97788.81;;;-0.67;100.00
70954;BME280;58618;47.490;8.736;2023-02-16T07:20:10;97801.25;;;-0.58;100.00
70954;BME280;58618;47.490;8.736;2023-02-16T07:22:38;97783.03;;;-0.76;100.00
70954;BME280;58618;47.490;8.736;2023-02-16T07:25:06;97802.81;;;-0.57;100.00
70954;BME280;58618;47.490;8.736;2023-02-16T07:27:33;97771.88;;;-0.67;100.00
70954;BME280;58618;47.490;8.736;2023-02-16T07:30:02;97808.31;;;-0.30;100.00
70954;BME280;58618;47.490;8.736;2023-02-16T07:32:30;97796.50;;;0.14;100.00
70954;BME280;58618;47.490;8.736;2023-02-16T07:34:57;97791.69;;;0.34;100.00
70954;BME280;58618;47.490;8.736;2023-02-16T07:37:24;97778.66;;;0.22;100.00
70954;BME280;58618;47.490;8.736;2023-02-16T07:39:52;97758.34;;;-0.07;100.00
70954;BME280;58618;47.490;8.736;2023-02-16T07:42:20;97771.22;;;0.35;100.00
70954;BME280;58618;47.490;8.736;2023-02-16T07:44:47;97762.91;;;0.12;100.00
70954;BME280;58618;47.490;8.736;2023-02-16T07:47:16;97775.41;;;-0.01;100.00
70954;BME280;58618;47.490;8.736;2023-02-16T07:49:43;97803.66;;;-0.04;100.00
70954;BME280;58618;47.490;8.736;2023-02-16T07:52:10;97780.66;;;-0.17;100.00
70954;BME280;58618;47.490;8.736;2023-02-16T07:54:38;97745.63;;;-0.36;100.00
70954;BME280;58618;47.490;8.736;2023-02-16T07:57:05;97755.28;;;0.12;100.00
70954;BME280;58618;47.490;8.736;2023-02-16T07:59:33;97804.94;;;0.95;100.00
70954;BME280;58618;47.490;8.736;2023-02-16T08:02:00;97809.00;;;1.53;100.00
70954;BME280;58618;47.490;8.736;2023-02-16T08:04:29;97779.06;;;2.04;100.00
70954;BME280;58618;47.490;8.736;2023-02-16T08:06:56;97802.97;;;2.44;97.41
70954;BME280;58618;47.490;8.736;2023-02-16T08:09:23;97764.41;;;2.12;97.97
70954;BME280;58618;47.490;8.736;2023-02-16T08:11:51;97783.94;;;2.87;95.06
70954;BME280;58618;47.490;8.736;2023-02-16T08:14:18;97785.97;;;3.12;92.56
70954;BME280;58618;47.490;8.736;2023-02-16T08:16:46;97784.25;;;3.32;92.14
70954;BME280;58618;47.490;8.736;2023-02-16T08:19:13;97788.38;;;3.59;89.40
70954;BME280;58618;47.490;8.736;2023-02-16T08:21:42;97783.28;;;3.66;88.32
70954;BME280;58618;47.490;8.736;2023-02-16T08:24:14;97778.97;;;3.79;86.60
70954;BME280;58618;47.490;8.736;2023-02-16T08:26:42;97779.72;;;3.87;87.74
70954;BME280;58618;47.490;8.736;2023-02-16T08:29:09;97804.78;;;4.29;85.73
70954;BME280;58618;47.490;8.736;2023-02-16T08:31:40;97774.94;;;4.23;85.63
70954;BME280;58618;47.490;8.736;2023-02-16T08:34:08;97767.69;;;4.27;86.16
70954;BME280;58618;47.490;8.736;2023-02-16T08:36:36;97781.09;;;4.73;85.53
70954;BME280;58618;47.490;8.736;2023-02-16T08:39:08;97759.97;;;4.46;84.02
70954;BME280;58618;47.490;8.736;2023-02-16T08:41:37;97787.44;;;4.57;85.15
70954;BME280;58618;47.490;8.736;2023-02-16T08:44:05;97807.09;;;4.57;86.66
70954;BME280;58618;47.490;8.736;2023-02-16T08:46:33;97808.66;;;4.64;85.73
70954;BME280;58618;47.490;8.736;2023-02-16T08:49:02;97800.94;;;4.71;85.38
70954;BME280;58618;47.490;8.736;2023-02-16T08:51:31;97796.59;;;4.72;85.40
70954;BME280;58618;47.490;8.736;2023-02-16T08:54:00;97769.81;;;4.30;87.71
70954;BME280;58618;47.490;8.736;2023-02-16T08:56:31;97811.47;;;4.23;89.87
70954;BME280;58618;47.490;8.736;2023-02-16T08:58:59;97794.56;;;4.42;87.13
70954;BME280;58618;47.490;8.736;2023-02-16T09:01:26;97768.72;;;4.12;87.92
70954;BME280;58618;47.490;8.736;2023-02-16T09:03:54;97813.41;;;4.41;88.21
70954;BME280;58618;47.490;8.736;2023-02-16T09:06:22;97807.16;;;4.24;90.21
70954;BME280;58618;47.490;8.736;2023-02-16T09:08:50;97786.03;;;3.77;91.93
70954;BME280;58618;47.490;8.736;2023-02-16T09:11:20;97818.19;;;3.92;92.77
70954;BME280;58618;47.490;8.736;2023-02-16T09:13:49;97817.81;;;3.68;94.95
70954;BME280;58618;47.490;8.736;2023-02-16T09:16:19;97811.16;;;3.54;96.08
70954;BME280;58618;47.490;8.736;2023-02-16T09:18:47;97823.69;;;3.43;94.40
70954;BME280;58618;47.490;8.736;2023-02-16T09:21:17;97795.41;;;3.24;94.78
70954;BME280;58618;47.490;8.736;2023-02-16T09:23:45;97817.78;;;3.22;93.93
70954;BME280;58618;47.490;8.736;2023-02-16T09:26:13;97814.56;;;3.07;95.23
70954;BME280;58618;47.490;8.736;2023-02-16T09:28:41;97821.81;;;3.04;94.86
70954;BME280;58618;47.490;8.736;2023-02-16T09:31:11;97795.06;;;2.73;95.74
70954;BME280;58618;47.490;8.736;2023-02-16T09:33:39;97825.25;;;2.76;97.65
70954;BME280;58618;47.490;8.736;2023-02-16T09:36:09;97824.25;;;2.71;97.75
70954;BME280;58618;47.490;8.736;2023-02-16T09:38:37;97819.91;;;2.65;97.59
70954;BME280;58618;47.490;8.736;2023-02-16T09:41:06;97833.63;;;2.70;97.87
70954;BME280;58618;47.490;8.736;2023-02-16T09:43:42;97816.59;;;2.64;99.64
70954;BME280;58618;47.490;8.736;2023-02-16T09:46:16;97823.13;;;2.86;98.33
70954;BME280;58618;47.490;8.736;2023-02-16T09:48:46;97793.34;;;2.87;99.77
70954;BME280;58618;47.490;8.736;2023-02-16T09:51:18;97811.63;;;3.04;98.21
70954;BME280;58618;47.490;8.736;2023-02-16T09:53:52;97803.44;;;3.15;100.00
70954;BME280;58618;47.490;8.736;2023-02-16T09:56:27;97818.56;;;3.29;96.93
70954;BME280;58618;47.490;8.736;2023-02-16T09:59:02;97781.63;;;2.99;98.15
70954;BME280;58618;47.490;8.736;2023-02-16T10:01:39;97818.19;;;3.52;97.83
70954;BME280;58618;47.490;8.736;2023-02-16T10:04:21;97810.75;;;3.57;97.71
70954;BME280;58618;47.490;8.736;2023-02-16T10:07:01;97809.97;;;3.76;99.48
70954;BME280;58618;47.490;8.736;2023-02-16T10:09:48;97797.41;;;3.88;98.69
70954;BME280;58618;47.490;8.736;2023-02-16T10:12:21;97812.31;;;3.98;97.87
70954;BME280;58618;47.490;8.736;2023-02-16T10:14:52;97802.47;;;4.08;99.66
70954;BME280;58618;47.490;8.736;2023-02-16T10:17:27;97794.25;;;4.06;100.00
70954;BME280;58618;47.490;8.736;2023-02-16T10:20:00;97787.16;;;4.14;99.42
70954;BME280;58618;47.490;8.736;2023-02-16T10:22:37;97802.84;;;4.31;98.25
70954;BME280;58618;47.490;8.736;2023-02-16T10:25:10;97794.94;;;4.39;97.50
70954;BME280;58618;47.490;8.736;2023-02-16T10:27:43;97798.25;;;4.53;97.46
70954;BME280;58618;47.490;8.736;2023-02-16T10:30:14;97791.38;;;4.60;100.00
70954;BME280;58618;47.490;8.736;2023-02-16T10:32:53;97757.59;;;4.51;98.17
70954;BME280;58618;47.490;8.736;2023-02-16T10:35:30;97787.91;;;4.86;93.02
70954;BME280;58618;47.490;8.736;2023-02-16T10:38:06;97791.00;;;5.01;90.92
70954;BME280;58618;47.490;8.736;2023-02-16T10:40:45;97786.75;;;5.13;91.96
70954;BME280;58618;47.490;8.736;2023-02-16T10:43:18;97771.84;;;5.10;94.10
70954;BME280;58618;47.490;8.736;2023-02-16T10:45:49;97775.72;;;5.19;95.38
70954;BME280;58618;47.490;8.736;2023-02-16T10:48:19;97769.44;;;5.15;97.27
70954;BME280;58618;47.490;8.736;2023-02-16T10:50:53;97759.66;;;5.12;96.47
70954;BME280;58618;47.490;8.736;2023-02-16T10:53:32;97773.41;;;5.42;95.61
70954;BME280;58618;47.490;8.736;2023-02-16T10:56:01;97744.94;;;5.32;95.28
70954;BME280;58618;47.490;8.736;2023-02-16T10:58:37;97778.66;;;5.54;94.72
70954;BME280;58618;47.490;8.736;2023-02-16T11:01:09;97754.88;;;5.47;94.02
70954;BME280;58618;47.490;8.736;2023-02-16T11:03:45;97772.94;;;5.77;94.31
70954;BME280;58618;47.490;8.736;2023-02-16T11:06:16;97772.88;;;5.83;95.26
70954;BME280;58618;47.490;8.736;2023-02-16T11:08:47;97762.19;;;5.93;93.14
70954;BME280;58618;47.490;8.736;2023-02-16T11:11:15;97739.00;;;5.88;92.36
70954;BME280;58618;47.490;8.736;2023-02-16T11:13:46;97747.84;;;6.10;92.79
70954;BME280;58618;47.490;8.736;2023-02-16T11:16:18;97719.19;;;6.02;92.17
70954;BME280;58618;47.490;8.736;2023-02-16T11:18:55;97730.78;;;6.22;88.54
70954;BME280;58618;47.490;8.736;2023-02-16T11:21:42;97727.50;;;6.33;87.84
70954;BME280;58618;47.490;8.736;2023-02-16T11:24:13;97723.34;;;6.51;90.67
70954;BME280;58618;47.490;8.736;2023-02-16T11:26:58;97718.19;;;6.69;88.12
70954;BME280;58618;47.490;8.736;2023-02-16T11:29:26;97698.25;;;6.71;87.61
70954;BME280;58618;47.490;8.736;2023-02-16T11:31:54;97704.25;;;7.06;86.71
70954;BME280;58618;47.490;8.736;2023-02-16T11:34:29;97725.72;;;7.35;86.05
70954;BME280;58618;47.490;8.736;2023-02-16T11:37:03;97715.16;;;7.55;87.06
70954;BME280;58618;47.490;8.736;2023-02-16T11:39:35;97692.59;;;7.69;88.12
70954;BME280;58618;47.490;8.736;2023-02-16T11:42:06;97676.84;;;7.65;86.21
70954;BME280;58618;47.490;8.736;2023-02-16T11:44:37;97676.66;;;7.67;86.07
70954;BME280;58618;47.490;8.736;2023-02-16T11:47:06;97699.94;;;7.88;85.77
70954;BME280;58618;47.490;8.736;2023-02-16T11:49:38;97677.28;;;7.85;85.41
70954;BME280;58618;47.490;8.736;2023-02-16T11:52:19;97639.34;;;7.76;85.40
70954;BME280;58618;47.490;8.736;2023-02-16T11:54:48;97696.19;;;8.31;78.87
70954;BME280;58618;47.490;8.736;2023-02-16T11:57:22;97685.44;;;8.45;75.37
70954;BME280;58618;47.490;8.736;2023-02-16T11:59:50;97692.97;;;8.64;74.94
70954;BME280;58618;47.490;8.736;2023-02-16T12:02:37;97680.06;;;8.75;75.72
70954;BME280;58618;47.490;8.736;2023-02-16T12:05:21;97680.25;;;9.19;76.94
70954;BME280;58618;47.490;8.736;2023-02-16T12:08:10;97677.28;;;9.27;74.53
70954;BME280;58618;47.490;8.736;2023-02-16T12:11:04;97667.91;;;9.38;72.37
70954;BME280;58618;47.490;8.736;2023-02-16T12:13:42;97652.38;;;9.49;69.93
70954;BME280;58618;47.490;8.736;2023-02-16T12:16:22;97664.09;;;9.79;66.81
70954;BME280;58618;47.490;8.736;2023-02-16T12:19:02;97640.84;;;9.73;66.33
70954;BME280;58618;47.490;8.736;2023-02-16T12:21:40;97656.50;;;10.10;68.30
70954;BME280;58618;47.490;8.736;2023-02-16T12:24:19;97623.72;;;10.06;63.10
70954;BME280;58618;47.490;8.736;2023-02-16T12:26:55;97638.38;;;10.22;60.72
70954;BME280;58618;47.490;8.736;2023-02-16T12:29:38;97646.97;;;10.54;63.67
70954;BME280;58618;47.490;8.736;2023-02-16T12:35:13;97644.09;;;10.78;61.86
70954;BME280;58618;47.490;8.736;2023-02-16T12:37:46;97646.03;;;10.92;56.50
70954;BME280;58618;47.490;8.736;2023-02-16T12:40:23;97614.72;;;10.84;55.46
70954;BME280;58618;47.490;8.736;2023-02-16T12:43:01;97631.91;;;11.05;54.35
70954;BME280;58618;47.490;8.736;2023-02-16T12:45:32;97631.75;;;11.22;54.01
70954;BME280;58618;47.490;8.736;2023-02-16T12:48:10;97623.81;;;11.28;52.95
70954;BME280;58618;47.490;8.736;2023-02-16T12:50:44;97626.66;;;11.32;53.50
70954;BME280;58618;47.490;8.736;2023-02-16T12:53:19;97623.00;;;11.23;52.36
70954;BME280;58618;47.490;8.736;2023-02-16T12:55:54;97596.44;;;11.32;51.23
70954;BME280;58618;47.490;8.736;2023-02-16T12:58:27;97621.34;;;11.49;52.12
70954;BME280;58618;47.490;8.736;2023-02-16T13:00:56;97588.38;;;11.19;51.72
70954;BME280;58618;47.490;8.736;2023-02-16T13:03:32;97616.78;;;11.66;53.93
70954;BME280;58618;47.490;8.736;2023-02-16T13:06:07;97612.22;;;11.73;52.84
70954;BME280;58618;47.490;8.736;2023-02-16T13:08:42;97582.63;;;11.54;51.73
70954;BME280;58618;47.490;8.736;2023-02-16T13:11:18;97602.34;;;11.70;51.86
70954;BME280;58618;47.490;8.736;2023-02-16T13:13:47;97586.38;;;11.78;51.82
70954;BME280;58618;47.490;8.736;2023-02-16T13:16:18;97579.66;;;11.82;50.99
70954;BME280;58618;47.490;8.736;2023-02-16T13:18:50;97570.06;;;11.72;50.13
70954;BME280;58618;47.490;8.736;2023-02-16T13:21:34;97585.59;;;11.77;51.94
70954;BME280;58618;47.490;8.736;2023-02-16T13:24:14;97582.78;;;11.84;50.62
70954;BME280;58618;47.490;8.736;2023-02-16T13:26:59;97576.09;;;11.98;50.85